LFBZ/BIQ METAR and TAF weather

Enter ICAO airport designator
Station Type Date Time Source
LFBZ METAR 2020/11/27 14:00 UTC NOAA

LFBZ 271400Z AUTO 04004KT 010V070 CAVOK 18/09 Q1010 NOSIG


Station Type Date Time Source
LFBZ Decoded METAR 2020/11/27 14:00 UTC NOAA

Biarritz, France (LFBZ) 43-28N 001-32W 71M
Nov 27, 2020 - 09:00 AM EST / 2020.11.27 1400 UTC
Wind: from the NE (040 degrees) at 5 MPH (4 KT) (direction variable):0
Visibility: greater than 7 mile(s):0
Temperature: 64 F (18 C)
Dew Point: 48 F (9 C)
Relative Humidity: 55%
Pressure (altimeter): 29.83 in. Hg (1010 hPa)
ob: LFBZ 271400Z AUTO 04004KT 010V070 CAVOK 18/09 Q1010 NOSIG
cycle: 14

Station Type Date Time Source
LFBZ TAF 2020/11/27 12:21 UTC NOAA

TAF LFBZ 271100Z 2712/2812 09006KT CAVOK
BECMG 2721/2723 0500 FG VV///
BECMG 2807/2809 3000 BR BKN005
BECMG 2809/2811 CAVOK

Example: see airport list